sensor_id;sensor_type;location;lat;lon;timestamp;pressure;altitude;pressure_sealevel;temperature;humidity
47240;BME280;32978;53.586;10.052;2023-01-28T00:01:52;102872.34;;;1.49;100.00
47240;BME280;32978;53.586;10.052;2023-01-28T00:06:48;102879.38;;;1.50;100.00
47240;BME280;32978;53.586;10.052;2023-01-28T00:11:45;102876.47;;;1.44;100.00
47240;BME280;32978;53.586;10.052;2023-01-28T00:16:41;102881.03;;;1.44;100.00
47240;BME280;32978;53.586;10.052;2023-01-28T00:21:38;102879.34;;;1.36;100.00
47240;BME280;32978;53.586;10.052;2023-01-28T00:26:35;102880.59;;;1.40;100.00
47240;BME280;32978;53.586;10.052;2023-01-28T00:31:31;102885.56;;;1.43;100.00
47240;BME280;32978;53.586;10.052;2023-01-28T00:36:29;102888.91;;;1.45;100.00
47240;BME280;32978;53.586;10.052;2023-01-28T00:41:28;102885.56;;;1.43;100.00
47240;BME280;32978;53.586;10.052;2023-01-28T00:46:24;102869.66;;;1.49;100.00
47240;BME280;32978;53.586;10.052;2023-01-28T00:51:24;102882.88;;;1.43;100.00
47240;BME280;32978;53.586;10.052;2023-01-28T00:56:21;102871.47;;;1.41;100.00
47240;BME280;32978;53.586;10.052;2023-01-28T01:01:22;102872.09;;;1.43;100.00
47240;BME280;32978;53.586;10.052;2023-01-28T01:06:19;102873.53;;;1.33;100.00
47240;BME280;32978;53.586;10.052;2023-01-28T01:11:17;102868.34;;;1.31;100.00
47240;BME280;32978;53.586;10.052;2023-01-28T01:16:15;102870.59;;;1.21;100.00
47240;BME280;32978;53.586;10.052;2023-01-28T01:21:14;102881.38;;;1.21;100.00
47240;BME280;32978;53.586;10.052;2023-01-28T01:26:12;102872.22;;;1.15;100.00
47240;BME280;32978;53.586;10.052;2023-01-28T01:31:16;102880.50;;;1.14;100.00
47240;BME280;32978;53.586;10.052;2023-01-28T01:36:15;102873.06;;;1.16;100.00
47240;BME280;32978;53.586;10.052;2023-01-28T01:41:23;102877.63;;;1.15;100.00
47240;BME280;32978;53.586;10.052;2023-01-28T01:51:36;102869.28;;;1.03;100.00
47240;BME280;32978;53.586;10.052;2023-01-28T01:56:37;102864.25;;;0.87;100.00
47240;BME280;32978;53.586;10.052;2023-01-28T02:01:34;102869.06;;;0.98;100.00
47240;BME280;32978;53.586;10.052;2023-01-28T02:06:31;102864.69;;;0.97;100.00
47240;BME280;32978;53.586;10.052;2023-01-28T02:11:31;102875.88;;;0.94;100.00
47240;BME280;32978;53.586;10.052;2023-01-28T02:16:30;102870.91;;;0.91;100.00
47240;BME280;32978;53.586;10.052;2023-01-28T02:21:36;102873.56;;;0.84;100.00
47240;BME280;32978;53.586;10.052;2023-01-28T02:27:30;102864.25;;;0.87;100.00
47240;BME280;32978;53.586;10.052;2023-01-28T02:32:20;102857.19;;;0.86;100.00
47240;BME280;32978;53.586;10.052;2023-01-28T02:42:31;102855.38;;;0.93;100.00
47240;BME280;32978;53.586;10.052;2023-01-28T02:47:29;102858.00;;;0.80;100.00
47240;BME280;32978;53.586;10.052;2023-01-28T02:58:25;102864.75;;;0.69;100.00
47240;BME280;32978;53.586;10.052;2023-01-28T03:03:58;102868.44;;;0.96;100.00
47240;BME280;32978;53.586;10.052;2023-01-28T03:08:59;102855.13;;;0.88;100.00
47240;BME280;32978;53.586;10.052;2023-01-28T03:14:16;102860.16;;;0.98;100.00
47240;BME280;32978;53.586;10.052;2023-01-28T03:19:33;102846.88;;;0.96;100.00
47240;BME280;32978;53.586;10.052;2023-01-28T03:24:50;102855.53;;;0.85;100.00
47240;BME280;32978;53.586;10.052;2023-01-28T03:30:11;102846.44;;;0.86;100.00
47240;BME280;32978;53.586;10.052;2023-01-28T03:35:33;102849.34;;;0.91;100.00
47240;BME280;32978;53.586;10.052;2023-01-28T03:40:58;102854.91;;;0.90;100.00
47240;BME280;32978;53.586;10.052;2023-01-28T03:45:55;102853.13;;;1.03;100.00
47240;BME280;32978;53.586;10.052;2023-01-28T03:50:54;102857.81;;;0.88;100.00
47240;BME280;32978;53.586;10.052;2023-01-28T03:55:52;102852.03;;;0.91;100.00
47240;BME280;32978;53.586;10.052;2023-01-28T04:00:48;102851.16;;;0.77;100.00
47240;BME280;32978;53.586;10.052;2023-01-28T04:05:55;102848.41;;;0.71;100.00
47240;BME280;32978;53.586;10.052;2023-01-28T04:10:52;102854.16;;;0.61;100.00
47240;BME280;32978;53.586;10.052;2023-01-28T04:15:49;102848.88;;;0.74;100.00
47240;BME280;32978;53.586;10.052;2023-01-28T04:20:47;102847.97;;;0.67;100.00
47240;BME280;32978;53.586;10.052;2023-01-28T04:25:44;102842.56;;;0.60;100.00
47240;BME280;32978;53.586;10.052;2023-01-28T04:30:40;102846.59;;;0.43;100.00
47240;BME280;32978;53.586;10.052;2023-01-28T04:35:37;102852.75;;;0.37;100.00
47240;BME280;32978;53.586;10.052;2023-01-28T04:40:33;102854.03;;;0.41;100.00
47240;BME280;32978;53.586;10.052;2023-01-28T04:45:30;102857.78;;;0.40;100.00
47240;BME280;32978;53.586;10.052;2023-01-28T04:50:27;102858.41;;;0.42;100.00
47240;BME280;32978;53.586;10.052;2023-01-28T04:55:23;102856.50;;;0.36;100.00
47240;BME280;32978;53.586;10.052;2023-01-28T05:00:20;102865.63;;;0.35;100.00
47240;BME280;32978;53.586;10.052;2023-01-28T05:05:16;102867.16;;;0.23;100.00
47240;BME280;32978;53.586;10.052;2023-01-28T05:10:13;102858.84;;;0.17;100.00
47240;BME280;32978;53.586;10.052;2023-01-28T05:15:10;102853.38;;;0.04;100.00
47240;BME280;32978;53.586;10.052;2023-01-28T05:20:07;102853.31;;;-0.03;100.00
47240;BME280;32978;53.586;10.052;2023-01-28T05:25:04;102850.31;;;-0.14;100.00
47240;BME280;32978;53.586;10.052;2023-01-28T05:30:01;102834.03;;;-0.34;100.00
47240;BME280;32978;53.586;10.052;2023-01-28T05:34:57;102831.53;;;-0.57;100.00
47240;BME280;32978;53.586;10.052;2023-01-28T05:39:54;102834.06;;;-0.71;100.00
47240;BME280;32978;53.586;10.052;2023-01-28T05:44:50;102841.72;;;-0.89;100.00
47240;BME280;32978;53.586;10.052;2023-01-28T05:49:47;102834.72;;;-1.05;100.00
47240;BME280;32978;53.586;10.052;2023-01-28T05:54:43;102838.53;;;-1.14;100.00
47240;BME280;32978;53.586;10.052;2023-01-28T05:59:40;102842.69;;;-1.12;100.00
47240;BME280;32978;53.586;10.052;2023-01-28T06:04:36;102831.81;;;-1.25;100.00
47240;BME280;32978;53.586;10.052;2023-01-28T06:09:32;102842.06;;;-1.14;100.00
47240;BME280;32978;53.586;10.052;2023-01-28T06:14:29;102843.25;;;-1.16;100.00
47240;BME280;32978;53.586;10.052;2023-01-28T06:19:25;102835.00;;;-1.15;100.00
47240;BME280;32978;53.586;10.052;2023-01-28T06:24:22;102835.97;;;-1.22;100.00
47240;BME280;32978;53.586;10.052;2023-01-28T06:29:18;102827.63;;;-1.28;100.00
47240;BME280;32978;53.586;10.052;2023-01-28T06:34:16;102824.75;;;-1.26;100.00
47240;BME280;32978;53.586;10.052;2023-01-28T06:39:12;102826.78;;;-1.28;100.00
47240;BME280;32978;53.586;10.052;2023-01-28T06:44:09;102821.41;;;-1.28;100.00
47240;BME280;32978;53.586;10.052;2023-01-28T06:49:05;102826.69;;;-1.35;100.00
47240;BME280;32978;53.586;10.052;2023-01-28T06:54:01;102837.38;;;-1.41;100.00
47240;BME280;32978;53.586;10.052;2023-01-28T06:58:58;102845.13;;;-1.46;100.00
47240;BME280;32978;53.586;10.052;2023-01-28T07:03:55;102865.56;;;-1.45;100.00
47240;BME280;32978;53.586;10.052;2023-01-28T07:08:51;102869.38;;;-1.25;100.00
47240;BME280;32978;53.586;10.052;2023-01-28T07:13:48;102899.91;;;-1.26;100.00
47240;BME280;32978;53.586;10.052;2023-01-28T07:18:44;102903.97;;;-1.30;100.00
47240;BME280;32978;53.586;10.052;2023-01-28T07:23:41;102900.28;;;-1.29;100.00
47240;BME280;32978;53.586;10.052;2023-01-28T07:28:37;102917.13;;;-1.35;100.00
47240;BME280;32978;53.586;10.052;2023-01-28T07:33:34;102906.03;;;-1.32;100.00
47240;BME280;32978;53.586;10.052;2023-01-28T07:38:30;102906.19;;;-1.49;100.00
47240;BME280;32978;53.586;10.052;2023-01-28T07:43:27;102913.78;;;-1.52;100.00
47240;BME280;32978;53.586;10.052;2023-01-28T07:48:23;102924.41;;;-1.59;100.00
47240;BME280;32978;53.586;10.052;2023-01-28T07:53:20;102925.44;;;-1.60;100.00
47240;BME280;32978;53.586;10.052;2023-01-28T07:58:16;102919.59;;;-1.63;100.00
47240;BME280;32978;53.586;10.052;2023-01-28T08:03:14;102919.13;;;-1.67;100.00
47240;BME280;32978;53.586;10.052;2023-01-28T08:08:11;102943.63;;;-1.70;100.00
47240;BME280;32978;53.586;10.052;2023-01-28T08:13:09;102942.63;;;-1.69;100.00
47240;BME280;32978;53.586;10.052;2023-01-28T08:18:07;102946.66;;;-1.73;100.00
47240;BME280;32978;53.586;10.052;2023-01-28T08:23:15;102926.03;;;-1.73;100.00
47240;BME280;32978;53.586;10.052;2023-01-28T08:28:12;102934.03;;;-1.64;100.00
47240;BME280;32978;53.586;10.052;2023-01-28T08:33:13;102930.41;;;-1.57;100.00
47240;BME280;32978;53.586;10.052;2023-01-28T08:38:12;102948.38;;;-1.42;100.00
47240;BME280;32978;53.586;10.052;2023-01-28T08:43:09;102926.47;;;-1.31;100.00
47240;BME280;32978;53.586;10.052;2023-01-28T08:48:06;102945.25;;;-1.31;100.00
47240;BME280;32978;53.586;10.052;2023-01-28T08:53:12;102944.88;;;-1.28;100.00
47240;BME280;32978;53.586;10.052;2023-01-28T08:58:11;102954.88;;;-1.22;100.00
47240;BME280;32978;53.586;10.052;2023-01-28T09:03:08;102965.25;;;-1.19;100.00
47240;BME280;32978;53.586;10.052;2023-01-28T09:08:07;102962.31;;;-0.94;100.00
47240;BME280;32978;53.586;10.052;2023-01-28T09:13:07;102946.16;;;-0.65;100.00
47240;BME280;32978;53.586;10.052;2023-01-28T09:18:04;102973.56;;;-0.54;100.00
47240;BME280;32978;53.586;10.052;2023-01-28T09:23:01;102982.69;;;-0.34;100.00
47240;BME280;32978;53.586;10.052;2023-01-28T09:27:58;102973.09;;;-0.22;100.00
47240;BME280;32978;53.586;10.052;2023-01-28T09:32:55;102987.59;;;-0.01;100.00
47240;BME280;32978;53.586;10.052;2023-01-28T09:37:57;102978.78;;;0.05;100.00
47240;BME280;32978;53.586;10.052;2023-01-28T09:48:02;102980.16;;;-0.20;100.00
47240;BME280;32978;53.586;10.052;2023-01-28T09:53:09;102967.38;;;0.03;100.00
47240;BME280;32978;53.586;10.052;2023-01-28T09:58:12;102963.38;;;0.42;100.00
47240;BME280;32978;53.586;10.052;2023-01-28T10:03:37;102954.59;;;0.90;100.00
47240;BME280;32978;53.586;10.052;2023-01-28T10:14:15;102930.09;;;2.41;100.00
47240;BME280;32978;53.586;10.052;2023-01-28T10:19:20;102926.72;;;1.85;100.00
47240;BME280;32978;53.586;10.052;2023-01-28T10:24:28;102920.09;;;2.74;100.00
47240;BME280;32978;53.586;10.052;2023-01-28T10:29:31;102919.81;;;2.96;100.00
47240;BME280;32978;53.586;10.052;2023-01-28T10:34:29;102915.13;;;2.58;100.00
47240;BME280;32978;53.586;10.052;2023-01-28T10:39:25;102893.97;;;2.28;100.00
47240;BME280;32978;53.586;10.052;2023-01-28T10:44:35;102905.19;;;2.12;100.00
47240;BME280;32978;53.586;10.052;2023-01-28T10:49:40;102890.84;;;1.92;100.00
47240;BME280;32978;53.586;10.052;2023-01-28T10:54:37;102880.69;;;1.94;100.00
47240;BME280;32978;53.586;10.052;2023-01-28T10:59:35;102872.72;;;1.45;100.00
47240;BME280;32978;53.586;10.052;2023-01-28T11:04:34;102848.69;;;1.51;100.00
47240;BME280;32978;53.586;10.052;2023-01-28T11:09:33;102863.66;;;1.86;100.00
47240;BME280;32978;53.586;10.052;2023-01-28T11:14:30;102856.19;;;1.82;100.00
47240;BME280;32978;53.586;10.052;2023-01-28T11:19:33;102842.06;;;1.73;100.00
47240;BME280;32978;53.586;10.052;2023-01-28T11:24:31;102843.75;;;1.74;100.00
47240;BME280;32978;53.586;10.052;2023-01-28T11:29:31;102823.59;;;1.57;100.00
47240;BME280;32978;53.586;10.052;2023-01-28T11:34:32;102804.09;;;2.80;100.00
47240;BME280;32978;53.586;10.052;2023-01-28T11:39:29;102807.44;;;3.52;100.00
47240;BME280;32978;53.586;10.052;2023-01-28T11:44:26;102803.53;;;3.09;100.00
47240;BME280;32978;53.586;10.052;2023-01-28T12:00:51;102808.03;;;2.19;100.00
47240;BME280;32978;53.586;10.052;2023-01-28T12:05:56;102797.66;;;2.09;100.00
47240;BME280;32978;53.586;10.052;2023-01-28T12:17:12;102806.97;;;2.06;100.00
47240;BME280;32978;53.586;10.052;2023-01-28T12:33:06;102776.31;;;2.66;100.00
47240;BME280;32978;53.586;10.052;2023-01-28T12:38:08;102786.25;;;2.79;100.00
47240;BME280;32978;53.586;10.052;2023-01-28T12:48:51;102756.09;;;4.14;100.00
47240;BME280;32978;53.586;10.052;2023-01-28T12:53:54;102747.59;;;3.42;100.00
47240;BME280;32978;53.586;10.052;2023-01-28T12:59:03;102749.91;;;3.06;100.00
47240;BME280;32978;53.586;10.052;2023-01-28T13:04:13;102744.53;;;2.61;100.00
47240;BME280;32978;53.586;10.052;2023-01-28T13:09:18;102732.97;;;2.47;100.00
47240;BME280;32978;53.586;10.052;2023-01-28T13:14:15;102734.88;;;2.34;100.00
47240;BME280;32978;53.586;10.052;2023-01-28T13:34:30;102743.66;;;3.37;100.00
47240;BME280;32978;53.586;10.052;2023-01-28T13:39:33;102742.69;;;3.00;100.00
47240;BME280;32978;53.586;10.052;2023-01-28T13:44:33;102744.91;;;3.85;100.00
47240;BME280;32978;53.586;10.052;2023-01-28T13:49:41;102750.13;;;3.62;100.00
47240;BME280;32978;53.586;10.052;2023-01-28T13:55:01;102762.53;;;2.81;100.00
47240;BME280;32978;53.586;10.052;2023-01-28T14:00:28;102770.13;;;2.52;100.00
47240;BME280;32978;53.586;10.052;2023-01-28T14:10:53;102763.94;;;2.45;100.00
47240;BME280;32978;53.586;10.052;2023-01-28T14:16:01;102753.31;;;2.50;100.00
47240;BME280;32978;53.586;10.052;2023-01-28T14:21:13;102748.97;;;2.49;100.00
47240;BME280;32978;53.586;10.052;2023-01-28T14:31:35;102748.66;;;2.12;100.00
47240;BME280;32978;53.586;10.052;2023-01-28T14:36:38;102734.97;;;2.14;100.00
47240;BME280;32978;53.586;10.052;2023-01-28T14:41:36;102740.78;;;2.10;100.00
47240;BME280;32978;53.586;10.052;2023-01-28T14:46:46;102756.78;;;2.05;100.00
47240;BME280;32978;53.586;10.052;2023-01-28T14:57:32;102777.53;;;2.05;100.00
47240;BME280;32978;53.586;10.052;2023-01-28T15:02:32;102781.06;;;2.05;100.00
47240;BME280;32978;53.586;10.052;2023-01-28T15:07:29;102784.81;;;2.04;100.00
47240;BME280;32978;53.586;10.052;2023-01-28T15:12:25;102797.25;;;1.99;100.00
47240;BME280;32978;53.586;10.052;2023-01-28T15:17:25;102777.97;;;1.88;100.00
47240;BME280;32978;53.586;10.052;2023-01-28T15:22:25;102778.16;;;1.94;100.00
47240;BME280;32978;53.586;10.052;2023-01-28T15:27:28;102768.63;;;1.98;100.00
47240;BME280;32978;53.586;10.052;2023-01-28T15:32:28;102748.28;;;1.88;100.00
47240;BME280;32978;53.586;10.052;2023-01-28T15:37:25;102762.81;;;1.87;100.00
47240;BME280;32978;53.586;10.052;2023-01-28T15:42:23;102762.41;;;1.77;100.00
47240;BME280;32978;53.586;10.052;2023-01-28T15:47:32;102761.97;;;1.67;100.00
47240;BME280;32978;53.586;10.052;2023-01-28T15:52:49;102759.09;;;1.68;100.00
47240;BME280;32978;53.586;10.052;2023-01-28T15:57:47;102749.56;;;1.66;100.00
47240;BME280;32978;53.586;10.052;2023-01-28T16:02:48;102748.31;;;1.75;100.00
47240;BME280;32978;53.586;10.052;2023-01-28T16:07:45;102736.69;;;1.75;100.00
47240;BME280;32978;53.586;10.052;2023-01-28T16:12:47;102743.72;;;1.69;100.00
47240;BME280;32978;53.586;10.052;2023-01-28T16:17:49;102747.47;;;1.81;100.00
47240;BME280;32978;53.586;10.052;2023-01-28T16:22:46;102763.66;;;1.68;100.00
47240;BME280;32978;53.586;10.052;2023-01-28T16:27:42;102744.16;;;1.66;100.00
47240;BME280;32978;53.586;10.052;2023-01-28T16:32:39;102759.91;;;1.69;100.00
47240;BME280;32978;53.586;10.052;2023-01-28T16:37:37;102763.03;;;1.66;100.00
47240;BME280;32978;53.586;10.052;2023-01-28T16:42:37;102771.75;;;1.55;100.00
47240;BME280;32978;53.586;10.052;2023-01-28T16:47:33;102767.19;;;1.42;100.00
47240;BME280;32978;53.586;10.052;2023-01-28T16:52:30;102741.03;;;1.36;100.00
47240;BME280;32978;53.586;10.052;2023-01-28T16:57:34;102754.50;;;1.29;100.00
47240;BME280;32978;53.586;10.052;2023-01-28T17:02:31;102785.59;;;1.32;100.00
47240;BME280;32978;53.586;10.052;2023-01-28T17:07:27;102780.66;;;1.35;100.00
47240;BME280;32978;53.586;10.052;2023-01-28T17:12:24;102760.34;;;1.39;100.00
47240;BME280;32978;53.586;10.052;2023-01-28T17:17:21;102757.81;;;1.24;100.00
47240;BME280;32978;53.586;10.052;2023-01-28T17:22:17;102765.25;;;1.16;100.00
47240;BME280;32978;53.586;10.052;2023-01-28T17:27:14;102764.47;;;1.22;100.00
47240;BME280;32978;53.586;10.052;2023-01-28T17:32:10;102755.78;;;1.33;100.00
47240;BME280;32978;53.586;10.052;2023-01-28T17:37:07;102769.03;;;1.28;100.00
47240;BME280;32978;53.586;10.052;2023-01-28T17:42:03;102760.34;;;1.33;100.00
47240;BME280;32978;53.586;10.052;2023-01-28T17:47:01;102771.53;;;1.43;100.00
47240;BME280;32978;53.586;10.052;2023-01-28T17:51:57;102768.63;;;1.44;100.00
47240;BME280;32978;53.586;10.052;2023-01-28T17:56:54;102776.09;;;1.49;100.00
47240;BME280;32978;53.586;10.052;2023-01-28T18:01:51;102751.63;;;1.44;100.00
47240;BME280;32978;53.586;10.052;2023-01-28T18:06:49;102752.03;;;1.41;100.00
47240;BME280;32978;53.586;10.052;2023-01-28T18:11:46;102776.31;;;1.47;100.00
47240;BME280;32978;53.586;10.052;2023-01-28T18:16:43;102776.94;;;1.50;100.00
47240;BME280;32978;53.586;10.052;2023-01-28T18:21:39;102788.13;;;1.46;100.00
47240;BME280;32978;53.586;10.052;2023-01-28T18:26:49;102801.41;;;1.35;100.00
47240;BME280;32978;53.586;10.052;2023-01-28T18:31:47;102800.16;;;1.51;100.00
47240;BME280;32978;53.586;10.052;2023-01-28T18:36:43;102786.06;;;1.49;100.00
47240;BME280;32978;53.586;10.052;2023-01-28T18:41:40;102782.72;;;1.53;100.00
47240;BME280;32978;53.586;10.052;2023-01-28T18:46:36;102776.50;;;1.53;100.00
47240;BME280;32978;53.586;10.052;2023-01-28T18:51:33;102766.56;;;1.46;100.00
47240;BME280;32978;53.586;10.052;2023-01-28T18:56:30;102763.66;;;1.48;100.00
47240;BME280;32978;53.586;10.052;2023-01-28T19:01:28;102750.41;;;1.46;100.00
47240;BME280;32978;53.586;10.052;2023-01-28T19:06:26;102746.84;;;1.46;100.00
47240;BME280;32978;53.586;10.052;2023-01-28T19:11:25;102754.75;;;1.47;100.00
47240;BME280;32978;53.586;10.052;2023-01-28T19:16:22;102748.50;;;1.40;100.00
47240;BME280;32978;53.586;10.052;2023-01-28T19:21:19;102748.53;;;1.47;100.00
47240;BME280;32978;53.586;10.052;2023-01-28T19:26:16;102749.56;;;1.39;100.00
47240;BME280;32978;53.586;10.052;2023-01-28T19:31:20;102755.34;;;1.30;100.00
47240;BME280;32978;53.586;10.052;2023-01-28T19:36:16;102747.25;;;1.36;100.00
47240;BME280;32978;53.586;10.052;2023-01-28T19:41:13;102762.81;;;1.34;100.00
47240;BME280;32978;53.586;10.052;2023-01-28T19:46:14;102752.03;;;1.34;100.00
47240;BME280;32978;53.586;10.052;2023-01-28T19:51:12;102749.53;;;1.26;100.00
47240;BME280;32978;53.586;10.052;2023-01-28T19:56:14;102759.88;;;1.09;100.00
47240;BME280;32978;53.586;10.052;2023-01-28T20:06:14;102766.09;;;1.23;100.00
47240;BME280;32978;53.586;10.052;2023-01-28T20:11:14;102750.56;;;1.12;100.00
47240;BME280;32978;53.586;10.052;2023-01-28T20:16:17;102753.88;;;1.27;100.00
47240;BME280;32978;53.586;10.052;2023-01-28T20:21:14;102746.22;;;1.24;100.00
47240;BME280;32978;53.586;10.052;2023-01-28T20:26:10;102740.84;;;1.24;100.00
47240;BME280;32978;53.586;10.052;2023-01-28T20:31:08;102743.31;;;1.19;100.00
47240;BME280;32978;53.586;10.052;2023-01-28T20:36:07;102739.97;;;1.10;100.00
47240;BME280;32978;53.586;10.052;2023-01-28T20:41:29;102739.56;;;1.13;100.00
47240;BME280;32978;53.586;10.052;2023-01-28T20:46:28;102732.94;;;1.16;100.00
47240;BME280;32978;53.586;10.052;2023-01-28T20:51:26;102720.91;;;1.18;100.00
47240;BME280;32978;53.586;10.052;2023-01-28T20:56:24;102721.34;;;1.22;100.00
47240;BME280;32978;53.586;10.052;2023-01-28T21:01:26;102719.28;;;1.31;100.00
47240;BME280;32978;53.586;10.052;2023-01-28T21:06:24;102723.22;;;1.28;100.00
47240;BME280;32978;53.586;10.052;2023-01-28T21:11:21;102726.31;;;1.32;100.00
47240;BME280;32978;53.586;10.052;2023-01-28T21:16:18;102727.56;;;1.36;100.00
47240;BME280;32978;53.586;10.052;2023-01-28T21:21:20;102711.81;;;1.39;100.00
47240;BME280;32978;53.586;10.052;2023-01-28T21:26:16;102723.84;;;1.43;100.00
47240;BME280;32978;53.586;10.052;2023-01-28T21:31:15;102716.38;;;1.45;100.00
47240;BME280;32978;53.586;10.052;2023-01-28T21:36:13;102717.63;;;1.50;100.00
47240;BME280;32978;53.586;10.052;2023-01-28T21:41:10;102731.28;;;1.41;100.00
47240;BME280;32978;53.586;10.052;2023-01-28T21:46:07;102720.13;;;1.38;100.00
47240;BME280;32978;53.586;10.052;2023-01-28T21:51:05;102720.94;;;1.38;100.00
47240;BME280;32978;53.586;10.052;2023-01-28T21:56:21;102718.88;;;1.40;100.00
47240;BME280;32978;53.586;10.052;2023-01-28T22:01:17;102711.41;;;1.42;100.00
47240;BME280;32978;53.586;10.052;2023-01-28T22:06:14;102709.09;;;1.53;100.00
47240;BME280;32978;53.586;10.052;2023-01-28T22:11:10;102706.44;;;1.39;100.00
47240;BME280;32978;53.586;10.052;2023-01-28T22:16:07;102697.72;;;1.37;100.00
47240;BME280;32978;53.586;10.052;2023-01-28T22:21:09;102707.25;;;1.46;100.00
47240;BME280;32978;53.586;10.052;2023-01-28T22:26:06;102701.88;;;1.46;100.00
47240;BME280;32978;53.586;10.052;2023-01-28T22:31:05;102696.06;;;1.50;100.00
47240;BME280;32978;53.586;10.052;2023-01-28T22:36:07;102685.25;;;1.50;100.00
47240;BME280;32978;53.586;10.052;2023-01-28T22:41:12;102679.44;;;1.53;100.00
47240;BME280;32978;53.586;10.052;2023-01-28T22:46:09;102673.66;;;1.49;100.00
47240;BME280;32978;53.586;10.052;2023-01-28T22:51:09;102661.19;;;1.48;100.00
47240;BME280;32978;53.586;10.052;2023-01-28T22:56:06;102665.78;;;1.47;100.00
47240;BME280;32978;53.586;10.052;2023-01-28T23:01:03;102658.75;;;1.46;100.00
47240;BME280;32978;53.586;10.052;2023-01-28T23:06:00;102640.50;;;1.49;100.00
47240;BME280;32978;53.586;10.052;2023-01-28T23:11:00;102659.94;;;1.51;100.00
47240;BME280;32978;53.586;10.052;2023-01-28T23:15:56;102645.88;;;1.49;100.00
47240;BME280;32978;53.586;10.052;2023-01-28T23:21:22;102654.56;;;1.51;100.00
47240;BME280;32978;53.586;10.052;2023-01-28T23:26:38;102643.13;;;1.62;100.00
47240;BME280;32978;53.586;10.052;2023-01-28T23:31:34;102657.88;;;1.53;100.00
47240;BME280;32978;53.586;10.052;2023-01-28T23:36:31;102655.81;;;1.55;100.00
47240;BME280;32978;53.586;10.052;2023-01-28T23:41:27;102654.56;;;1.51;100.00
47240;BME280;32978;53.586;10.052;2023-01-28T23:46:23;102662.44;;;1.45;100.00
47240;BME280;32978;53.586;10.052;2023-01-28T23:51:34;102659.34;;;1.49;100.00
47240;BME280;32978;53.586;10.052;2023-01-28T23:56:33;102667.03;;;1.52;100.00
